sensor_id;sensor_type;location;lat;lon;timestamp;P1;durP1;ratioP1;P2;durP2;ratioP2
47289;SDS011;33197;52.524;13.444;2023-04-25T00:01:22;4.45;;;3.00;;
47289;SDS011;33197;52.524;13.444;2023-04-25T00:03:49;7.57;;;3.65;;
47289;SDS011;33197;52.524;13.444;2023-04-25T00:06:17;8.73;;;3.83;;
47289;SDS011;33197;52.524;13.444;2023-04-25T00:08:45;6.35;;;3.00;;
47289;SDS011;33197;52.524;13.444;2023-04-25T00:11:12;9.25;;;2.72;;
47289;SDS011;33197;52.524;13.444;2023-04-25T00:13:39;11.57;;;3.10;;
47289;SDS011;33197;52.524;13.444;2023-04-25T00:16:08;6.18;;;2.83;;
47289;SDS011;33197;52.524;13.444;2023-04-25T00:18:35;5.40;;;2.50;;
47289;SDS011;33197;52.524;13.444;2023-04-25T00:21:03;8.57;;;2.28;;
47289;SDS011;33197;52.524;13.444;2023-04-25T00:23:32;7.78;;;2.55;;
47289;SDS011;33197;52.524;13.444;2023-04-25T00:26:02;7.68;;;3.38;;
47289;SDS011;33197;52.524;13.444;2023-04-25T00:28:29;8.00;;;2.47;;
47289;SDS011;33197;52.524;13.444;2023-04-25T00:30:56;8.15;;;3.00;;
47289;SDS011;33197;52.524;13.444;2023-04-25T00:33:23;6.90;;;2.60;;
47289;SDS011;33197;52.524;13.444;2023-04-25T00:35:51;5.38;;;2.35;;
47289;SDS011;33197;52.524;13.444;2023-04-25T00:38:18;8.32;;;2.20;;
47289;SDS011;33197;52.524;13.444;2023-04-25T00:40:45;9.15;;;3.30;;
47289;SDS011;33197;52.524;13.444;2023-04-25T00:43:12;9.50;;;3.67;;
47289;SDS011;33197;52.524;13.444;2023-04-25T00:45:39;6.57;;;2.30;;
47289;SDS011;33197;52.524;13.444;2023-04-25T00:48:07;13.48;;;3.00;;
47289;SDS011;33197;52.524;13.444;2023-04-25T00:50:34;8.93;;;2.85;;
47289;SDS011;33197;52.524;13.444;2023-04-25T00:53:02;9.10;;;2.90;;
47289;SDS011;33197;52.524;13.444;2023-04-25T00:55:30;8.93;;;3.13;;
47289;SDS011;33197;52.524;13.444;2023-04-25T00:57:58;10.27;;;2.80;;
47289;SDS011;33197;52.524;13.444;2023-04-25T01:00:26;7.25;;;2.53;;
47289;SDS011;33197;52.524;13.444;2023-04-25T01:02:56;6.95;;;2.63;;
47289;SDS011;33197;52.524;13.444;2023-04-25T01:05:24;3.55;;;2.47;;
47289;SDS011;33197;52.524;13.444;2023-04-25T01:07:51;6.13;;;2.67;;
47289;SDS011;33197;52.524;13.444;2023-04-25T01:10:18;7.13;;;3.33;;
47289;SDS011;33197;52.524;13.444;2023-04-25T01:12:46;8.45;;;3.53;;
47289;SDS011;33197;52.524;13.444;2023-04-25T01:15:14;8.57;;;2.72;;
47289;SDS011;33197;52.524;13.444;2023-04-25T01:17:41;8.55;;;3.55;;
47289;SDS011;33197;52.524;13.444;2023-04-25T01:20:09;11.45;;;3.85;;
47289;SDS011;33197;52.524;13.444;2023-04-25T01:22:38;8.77;;;2.67;;
47289;SDS011;33197;52.524;13.444;2023-04-25T01:25:44;11.57;;;3.58;;
47289;SDS011;33197;52.524;13.444;2023-04-25T01:28:12;11.35;;;3.95;;
47289;SDS011;33197;52.524;13.444;2023-04-25T01:30:40;6.50;;;3.30;;
47289;SDS011;33197;52.524;13.444;2023-04-25T01:33:08;9.70;;;3.53;;
47289;SDS011;33197;52.524;13.444;2023-04-25T01:35:35;9.45;;;3.50;;
47289;SDS011;33197;52.524;13.444;2023-04-25T01:38:02;6.68;;;3.15;;
47289;SDS011;33197;52.524;13.444;2023-04-25T01:40:30;12.65;;;3.30;;
47289;SDS011;33197;52.524;13.444;2023-04-25T01:42:57;6.30;;;3.88;;
47289;SDS011;33197;52.524;13.444;2023-04-25T01:45:24;11.15;;;3.63;;
47289;SDS011;33197;52.524;13.444;2023-04-25T01:47:51;11.15;;;3.30;;
47289;SDS011;33197;52.524;13.444;2023-04-25T01:50:19;10.75;;;3.30;;
47289;SDS011;33197;52.524;13.444;2023-04-25T01:52:46;10.32;;;3.10;;
47289;SDS011;33197;52.524;13.444;2023-04-25T01:55:14;8.30;;;3.50;;
47289;SDS011;33197;52.524;13.444;2023-04-25T01:57:41;12.65;;;3.63;;
47289;SDS011;33197;52.524;13.444;2023-04-25T02:00:10;7.15;;;3.72;;
47289;SDS011;33197;52.524;13.444;2023-04-25T02:02:37;7.90;;;3.60;;
47289;SDS011;33197;52.524;13.444;2023-04-25T02:05:05;8.90;;;3.78;;
47289;SDS011;33197;52.524;13.444;2023-04-25T02:07:33;11.82;;;3.83;;
47289;SDS011;33197;52.524;13.444;2023-04-25T02:10:01;8.25;;;3.85;;
47289;SDS011;33197;52.524;13.444;2023-04-25T02:12:28;14.85;;;4.40;;
47289;SDS011;33197;52.524;13.444;2023-04-25T02:14:55;7.43;;;3.42;;
47289;SDS011;33197;52.524;13.444;2023-04-25T02:17:23;8.05;;;3.50;;
47289;SDS011;33197;52.524;13.444;2023-04-25T02:19:50;9.55;;;3.95;;
47289;SDS011;33197;52.524;13.444;2023-04-25T02:22:18;13.48;;;4.00;;
47289;SDS011;33197;52.524;13.444;2023-04-25T02:24:46;10.00;;;3.95;;
47289;SDS011;33197;52.524;13.444;2023-04-25T02:27:13;8.45;;;3.78;;
47289;SDS011;33197;52.524;13.444;2023-04-25T02:29:41;6.32;;;4.18;;
47289;SDS011;33197;52.524;13.444;2023-04-25T02:32:08;12.95;;;4.60;;
47289;SDS011;33197;52.524;13.444;2023-04-25T02:34:35;13.10;;;4.20;;
47289;SDS011;33197;52.524;13.444;2023-04-25T02:37:03;12.23;;;4.40;;
47289;SDS011;33197;52.524;13.444;2023-04-25T02:39:30;6.65;;;3.90;;
47289;SDS011;33197;52.524;13.444;2023-04-25T02:41:57;10.05;;;3.58;;
47289;SDS011;33197;52.524;13.444;2023-04-25T02:44:28;10.45;;;4.00;;
47289;SDS011;33197;52.524;13.444;2023-04-25T02:46:55;6.90;;;3.70;;
47289;SDS011;33197;52.524;13.444;2023-04-25T02:49:22;10.95;;;4.25;;
47289;SDS011;33197;52.524;13.444;2023-04-25T02:51:50;12.07;;;4.80;;
47289;SDS011;33197;52.524;13.444;2023-04-25T02:54:17;12.25;;;4.10;;
47289;SDS011;33197;52.524;13.444;2023-04-25T02:56:44;9.63;;;4.15;;
47289;SDS011;33197;52.524;13.444;2023-04-25T02:59:11;12.98;;;4.28;;
47289;SDS011;33197;52.524;13.444;2023-04-25T03:01:38;7.82;;;4.18;;
47289;SDS011;33197;52.524;13.444;2023-04-25T03:04:06;11.55;;;4.07;;
47289;SDS011;33197;52.524;13.444;2023-04-25T03:06:33;7.28;;;4.30;;
47289;SDS011;33197;52.524;13.444;2023-04-25T03:09:00;10.40;;;5.38;;
47289;SDS011;33197;52.524;13.444;2023-04-25T03:11:27;8.80;;;4.10;;
47289;SDS011;33197;52.524;13.444;2023-04-25T03:13:54;9.77;;;4.20;;
47289;SDS011;33197;52.524;13.444;2023-04-25T03:16:22;11.80;;;5.05;;
47289;SDS011;33197;52.524;13.444;2023-04-25T03:18:49;12.65;;;5.05;;
47289;SDS011;33197;52.524;13.444;2023-04-25T03:21:17;9.05;;;4.97;;
47289;SDS011;33197;52.524;13.444;2023-04-25T03:23:44;7.68;;;3.95;;
47289;SDS011;33197;52.524;13.444;2023-04-25T03:26:12;10.43;;;3.90;;
47289;SDS011;33197;52.524;13.444;2023-04-25T03:28:39;9.10;;;4.25;;
47289;SDS011;33197;52.524;13.444;2023-04-25T03:31:07;11.45;;;4.47;;
47289;SDS011;33197;52.524;13.444;2023-04-25T03:33:34;8.82;;;4.80;;
47289;SDS011;33197;52.524;13.444;2023-04-25T03:36:01;9.77;;;4.53;;
47289;SDS011;33197;52.524;13.444;2023-04-25T03:38:28;9.00;;;4.57;;
47289;SDS011;33197;52.524;13.444;2023-04-25T03:40:55;11.20;;;5.10;;
47289;SDS011;33197;52.524;13.444;2023-04-25T03:43:23;10.75;;;4.47;;
47289;SDS011;33197;52.524;13.444;2023-04-25T03:45:50;12.90;;;5.00;;
47289;SDS011;33197;52.524;13.444;2023-04-25T03:48:18;12.27;;;4.10;;
47289;SDS011;33197;52.524;13.444;2023-04-25T03:50:48;11.43;;;4.78;;
47289;SDS011;33197;52.524;13.444;2023-04-25T03:53:15;16.15;;;5.32;;
47289;SDS011;33197;52.524;13.444;2023-04-25T03:55:43;13.18;;;4.53;;
47289;SDS011;33197;52.524;13.444;2023-04-25T03:58:10;13.90;;;4.88;;
47289;SDS011;33197;52.524;13.444;2023-04-25T04:00:37;10.20;;;4.40;;
47289;SDS011;33197;52.524;13.444;2023-04-25T04:03:04;10.90;;;4.60;;
47289;SDS011;33197;52.524;13.444;2023-04-25T04:05:32;14.02;;;4.65;;
47289;SDS011;33197;52.524;13.444;2023-04-25T04:08:00;14.48;;;4.40;;
47289;SDS011;33197;52.524;13.444;2023-04-25T04:10:27;11.05;;;4.55;;
47289;SDS011;33197;52.524;13.444;2023-04-25T04:12:54;11.73;;;4.40;;
47289;SDS011;33197;52.524;13.444;2023-04-25T04:15:21;9.95;;;4.55;;
47289;SDS011;33197;52.524;13.444;2023-04-25T04:17:49;10.20;;;4.38;;
47289;SDS011;33197;52.524;13.444;2023-04-25T04:23:08;9.45;;;4.68;;
47289;SDS011;33197;52.524;13.444;2023-04-25T04:25:35;11.05;;;5.00;;
47289;SDS011;33197;52.524;13.444;2023-04-25T04:28:03;9.48;;;4.75;;
47289;SDS011;33197;52.524;13.444;2023-04-25T04:30:30;7.15;;;4.35;;
47289;SDS011;33197;52.524;13.444;2023-04-25T04:32:57;9.50;;;4.20;;
47289;SDS011;33197;52.524;13.444;2023-04-25T04:35:25;8.55;;;4.53;;
47289;SDS011;33197;52.524;13.444;2023-04-25T04:37:53;12.40;;;4.75;;
47289;SDS011;33197;52.524;13.444;2023-04-25T04:40:21;11.35;;;4.18;;
47289;SDS011;33197;52.524;13.444;2023-04-25T04:42:48;6.60;;;4.03;;
47289;SDS011;33197;52.524;13.444;2023-04-25T04:45:16;11.23;;;4.75;;
47289;SDS011;33197;52.524;13.444;2023-04-25T04:47:44;10.73;;;4.82;;
47289;SDS011;33197;52.524;13.444;2023-04-25T04:50:14;11.82;;;4.38;;
47289;SDS011;33197;52.524;13.444;2023-04-25T04:52:42;11.20;;;4.65;;
47289;SDS011;33197;52.524;13.444;2023-04-25T04:55:09;13.10;;;5.18;;
47289;SDS011;33197;52.524;13.444;2023-04-25T04:57:36;9.30;;;4.40;;
47289;SDS011;33197;52.524;13.444;2023-04-25T05:00:06;11.45;;;4.38;;
47289;SDS011;33197;52.524;13.444;2023-04-25T05:02:38;11.85;;;4.43;;
47289;SDS011;33197;52.524;13.444;2023-04-25T05:05:06;13.20;;;4.20;;
47289;SDS011;33197;52.524;13.444;2023-04-25T05:07:34;21.35;;;5.43;;
47289;SDS011;33197;52.524;13.444;2023-04-25T05:10:01;10.13;;;4.43;;
47289;SDS011;33197;52.524;13.444;2023-04-25T05:12:28;7.97;;;4.82;;
47289;SDS011;33197;52.524;13.444;2023-04-25T05:14:57;11.50;;;4.85;;
47289;SDS011;33197;52.524;13.444;2023-04-25T05:17:24;12.75;;;4.63;;
47289;SDS011;33197;52.524;13.444;2023-04-25T05:19:51;10.00;;;4.47;;
47289;SDS011;33197;52.524;13.444;2023-04-25T05:22:18;11.95;;;5.18;;
47289;SDS011;33197;52.524;13.444;2023-04-25T05:24:46;13.25;;;4.40;;
47289;SDS011;33197;52.524;13.444;2023-04-25T05:27:13;11.27;;;5.00;;
47289;SDS011;33197;52.524;13.444;2023-04-25T05:29:40;11.38;;;4.45;;
47289;SDS011;33197;52.524;13.444;2023-04-25T05:32:08;16.17;;;4.78;;
47289;SDS011;33197;52.524;13.444;2023-04-25T05:34:36;10.98;;;4.57;;
47289;SDS011;33197;52.524;13.444;2023-04-25T05:37:03;12.20;;;4.40;;
47289;SDS011;33197;52.524;13.444;2023-04-25T05:39:30;16.27;;;5.10;;
47289;SDS011;33197;52.524;13.444;2023-04-25T05:41:58;7.35;;;4.18;;
47289;SDS011;33197;52.524;13.444;2023-04-25T05:44:25;11.25;;;4.72;;
47289;SDS011;33197;52.524;13.444;2023-04-25T05:46:53;10.82;;;5.45;;
47289;SDS011;33197;52.524;13.444;2023-04-25T05:49:20;8.30;;;4.47;;
47289;SDS011;33197;52.524;13.444;2023-04-25T05:51:47;12.63;;;4.90;;
47289;SDS011;33197;52.524;13.444;2023-04-25T05:54:15;12.73;;;4.85;;
47289;SDS011;33197;52.524;13.444;2023-04-25T05:56:43;12.13;;;4.80;;
47289;SDS011;33197;52.524;13.444;2023-04-25T05:59:10;16.75;;;5.40;;
47289;SDS011;33197;52.524;13.444;2023-04-25T06:01:37;13.93;;;6.13;;
47289;SDS011;33197;52.524;13.444;2023-04-25T06:04:05;13.15;;;5.32;;
47289;SDS011;33197;52.524;13.444;2023-04-25T06:06:32;13.88;;;5.72;;
47289;SDS011;33197;52.524;13.444;2023-04-25T06:09:00;15.80;;;6.25;;
47289;SDS011;33197;52.524;13.444;2023-04-25T06:11:27;15.52;;;4.93;;
47289;SDS011;33197;52.524;13.444;2023-04-25T06:13:55;16.50;;;5.35;;
47289;SDS011;33197;52.524;13.444;2023-04-25T06:16:22;11.13;;;5.22;;
47289;SDS011;33197;52.524;13.444;2023-04-25T06:18:49;15.32;;;5.78;;
47289;SDS011;33197;52.524;13.444;2023-04-25T06:21:16;12.63;;;5.35;;
47289;SDS011;33197;52.524;13.444;2023-04-25T06:23:44;14.18;;;5.53;;
47289;SDS011;33197;52.524;13.444;2023-04-25T06:26:11;10.98;;;5.55;;
47289;SDS011;33197;52.524;13.444;2023-04-25T06:28:38;13.88;;;5.63;;
47289;SDS011;33197;52.524;13.444;2023-04-25T06:31:06;19.35;;;5.75;;
47289;SDS011;33197;52.524;13.444;2023-04-25T06:33:33;17.42;;;6.70;;
47289;SDS011;33197;52.524;13.444;2023-04-25T06:36:00;14.00;;;5.00;;
47289;SDS011;33197;52.524;13.444;2023-04-25T06:38:28;11.05;;;5.82;;
47289;SDS011;33197;52.524;13.444;2023-04-25T06:40:55;16.45;;;5.78;;
47289;SDS011;33197;52.524;13.444;2023-04-25T06:43:22;10.45;;;5.90;;
47289;SDS011;33197;52.524;13.444;2023-04-25T06:45:50;15.82;;;5.55;;
47289;SDS011;33197;52.524;13.444;2023-04-25T06:48:18;13.00;;;5.75;;
47289;SDS011;33197;52.524;13.444;2023-04-25T06:50:45;16.65;;;6.70;;
47289;SDS011;33197;52.524;13.444;2023-04-25T06:53:13;12.73;;;6.20;;
47289;SDS011;33197;52.524;13.444;2023-04-25T06:55:40;12.98;;;5.70;;
47289;SDS011;33197;52.524;13.444;2023-04-25T06:58:07;15.90;;;6.07;;
47289;SDS011;33197;52.524;13.444;2023-04-25T07:00:34;16.70;;;7.22;;
47289;SDS011;33197;52.524;13.444;2023-04-25T07:03:02;15.02;;;6.70;;
47289;SDS011;33197;52.524;13.444;2023-04-25T07:05:30;14.52;;;5.07;;
47289;SDS011;33197;52.524;13.444;2023-04-25T07:07:58;13.10;;;5.35;;
47289;SDS011;33197;52.524;13.444;2023-04-25T07:10:25;15.10;;;6.50;;
47289;SDS011;33197;52.524;13.444;2023-04-25T07:12:52;8.57;;;5.75;;
47289;SDS011;33197;52.524;13.444;2023-04-25T07:15:19;10.05;;;4.43;;
47289;SDS011;33197;52.524;13.444;2023-04-25T07:17:47;9.00;;;5.15;;
47289;SDS011;33197;52.524;13.444;2023-04-25T07:20:14;10.63;;;4.78;;
47289;SDS011;33197;52.524;13.444;2023-04-25T07:22:42;13.88;;;5.20;;
47289;SDS011;33197;52.524;13.444;2023-04-25T07:25:09;11.73;;;4.85;;
47289;SDS011;33197;52.524;13.444;2023-04-25T07:27:38;9.63;;;5.57;;
47289;SDS011;33197;52.524;13.444;2023-04-25T07:30:06;9.13;;;4.38;;
47289;SDS011;33197;52.524;13.444;2023-04-25T07:32:34;13.15;;;4.97;;
47289;SDS011;33197;52.524;13.444;2023-04-25T07:35:01;17.63;;;5.63;;
47289;SDS011;33197;52.524;13.444;2023-04-25T07:37:30;10.25;;;4.60;;
47289;SDS011;33197;52.524;13.444;2023-04-25T07:39:57;11.65;;;4.22;;
47289;SDS011;33197;52.524;13.444;2023-04-25T07:42:24;12.77;;;4.53;;
47289;SDS011;33197;52.524;13.444;2023-04-25T07:44:51;15.52;;;6.10;;
47289;SDS011;33197;52.524;13.444;2023-04-25T07:47:19;20.10;;;5.05;;
47289;SDS011;33197;52.524;13.444;2023-04-25T07:49:46;16.27;;;5.20;;
47289;SDS011;33197;52.524;13.444;2023-04-25T07:52:14;14.20;;;4.30;;
47289;SDS011;33197;52.524;13.444;2023-04-25T07:54:41;15.13;;;5.47;;
47289;SDS011;33197;52.524;13.444;2023-04-25T07:57:08;16.42;;;5.47;;
47289;SDS011;33197;52.524;13.444;2023-04-25T07:59:35;14.63;;;5.00;;
47289;SDS011;33197;52.524;13.444;2023-04-25T08:02:03;22.42;;;4.95;;
47289;SDS011;33197;52.524;13.444;2023-04-25T08:04:30;23.90;;;4.95;;
47289;SDS011;33197;52.524;13.444;2023-04-25T08:06:57;26.02;;;5.78;;
47289;SDS011;33197;52.524;13.444;2023-04-25T08:09:25;16.83;;;4.00;;
47289;SDS011;33197;52.524;13.444;2023-04-25T08:11:52;23.35;;;5.30;;
47289;SDS011;33197;52.524;13.444;2023-04-25T08:14:20;20.33;;;4.15;;
47289;SDS011;33197;52.524;13.444;2023-04-25T08:16:47;17.70;;;4.68;;
47289;SDS011;33197;52.524;13.444;2023-04-25T08:19:14;17.88;;;3.75;;
47289;SDS011;33197;52.524;13.444;2023-04-25T08:21:41;17.70;;;4.55;;
47289;SDS011;33197;52.524;13.444;2023-04-25T08:24:09;18.90;;;4.10;;
47289;SDS011;33197;52.524;13.444;2023-04-25T08:26:36;20.00;;;5.00;;
47289;SDS011;33197;52.524;13.444;2023-04-25T08:29:04;16.70;;;4.50;;
47289;SDS011;33197;52.524;13.444;2023-04-25T08:31:32;24.80;;;5.10;;
47289;SDS011;33197;52.524;13.444;2023-04-25T08:33:59;28.00;;;5.03;;
47289;SDS011;33197;52.524;13.444;2023-04-25T08:36:27;29.20;;;5.93;;
47289;SDS011;33197;52.524;13.444;2023-04-25T08:38:58;19.17;;;4.97;;
47289;SDS011;33197;52.524;13.444;2023-04-25T08:41:25;24.15;;;4.82;;
47289;SDS011;33197;52.524;13.444;2023-04-25T08:43:53;23.17;;;4.13;;
47289;SDS011;33197;52.524;13.444;2023-04-25T08:46:22;13.32;;;4.25;;
47289;SDS011;33197;52.524;13.444;2023-04-25T08:48:50;26.65;;;4.90;;
47289;SDS011;33197;52.524;13.444;2023-04-25T08:51:23;29.52;;;5.40;;
47289;SDS011;33197;52.524;13.444;2023-04-25T08:53:54;19.13;;;4.53;;
47289;SDS011;33197;52.524;13.444;2023-04-25T08:56:26;20.40;;;4.78;;
47289;SDS011;33197;52.524;13.444;2023-04-25T08:58:55;21.35;;;4.80;;
47289;SDS011;33197;52.524;13.444;2023-04-25T09:01:22;22.75;;;4.32;;
47289;SDS011;33197;52.524;13.444;2023-04-25T09:03:49;17.27;;;4.78;;
47289;SDS011;33197;52.524;13.444;2023-04-25T09:06:17;26.90;;;4.93;;
47289;SDS011;33197;52.524;13.444;2023-04-25T09:08:44;16.92;;;4.50;;
47289;SDS011;33197;52.524;13.444;2023-04-25T09:11:12;10.57;;;3.13;;
47289;SDS011;33197;52.524;13.444;2023-04-25T09:13:41;21.15;;;4.32;;
47289;SDS011;33197;52.524;13.444;2023-04-25T09:16:08;31.02;;;5.07;;
47289;SDS011;33197;52.524;13.444;2023-04-25T09:18:36;13.65;;;4.20;;
47289;SDS011;33197;52.524;13.444;2023-04-25T09:21:08;14.65;;;3.42;;
47289;SDS011;33197;52.524;13.444;2023-04-25T09:23:41;16.30;;;4.05;;
47289;SDS011;33197;52.524;13.444;2023-04-25T09:26:15;17.02;;;3.58;;
47289;SDS011;33197;52.524;13.444;2023-04-25T09:28:44;13.63;;;3.13;;
47289;SDS011;33197;52.524;13.444;2023-04-25T09:31:20;17.27;;;3.60;;
47289;SDS011;33197;52.524;13.444;2023-04-25T09:33:58;20.48;;;4.70;;
47289;SDS011;33197;52.524;13.444;2023-04-25T09:36:29;16.40;;;3.60;;
47289;SDS011;33197;52.524;13.444;2023-04-25T09:38:57;24.15;;;3.80;;
47289;SDS011;33197;52.524;13.444;2023-04-25T09:41:26;19.48;;;3.63;;
47289;SDS011;33197;52.524;13.444;2023-04-25T09:43:56;12.48;;;3.60;;
47289;SDS011;33197;52.524;13.444;2023-04-25T09:46:24;17.50;;;4.13;;
47289;SDS011;33197;52.524;13.444;2023-04-25T09:48:52;18.92;;;3.40;;
47289;SDS011;33197;52.524;13.444;2023-04-25T09:51:20;11.57;;;3.67;;
47289;SDS011;33197;52.524;13.444;2023-04-25T09:53:52;20.33;;;3.83;;
47289;SDS011;33197;52.524;13.444;2023-04-25T09:56:20;14.90;;;4.28;;
47289;SDS011;33197;52.524;13.444;2023-04-25T09:58:48;14.63;;;3.70;;
47289;SDS011;33197;52.524;13.444;2023-04-25T10:01:17;17.77;;;4.03;;
47289;SDS011;33197;52.524;13.444;2023-04-25T10:03:44;15.63;;;3.05;;
47289;SDS011;33197;52.524;13.444;2023-04-25T10:06:16;13.02;;;3.22;;
47289;SDS011;33197;52.524;13.444;2023-04-25T10:08:46;14.30;;;2.95;;
47289;SDS011;33197;52.524;13.444;2023-04-25T10:11:16;18.88;;;3.78;;
47289;SDS011;33197;52.524;13.444;2023-04-25T10:13:44;12.93;;;2.90;;
47289;SDS011;33197;52.524;13.444;2023-04-25T10:16:11;14.88;;;3.17;;
47289;SDS011;33197;52.524;13.444;2023-04-25T10:18:39;15.70;;;3.13;;
47289;SDS011;33197;52.524;13.444;2023-04-25T10:21:06;15.88;;;3.40;;
47289;SDS011;33197;52.524;13.444;2023-04-25T10:23:33;17.75;;;3.47;;
47289;SDS011;33197;52.524;13.444;2023-04-25T10:26:01;9.05;;;3.05;;
47289;SDS011;33197;52.524;13.444;2023-04-25T10:28:28;12.43;;;3.38;;
47289;SDS011;33197;52.524;13.444;2023-04-25T10:31:00;14.05;;;3.30;;
47289;SDS011;33197;52.524;13.444;2023-04-25T10:33:33;12.10;;;3.40;;
47289;SDS011;33197;52.524;13.444;2023-04-25T10:36:11;14.10;;;3.28;;
47289;SDS011;33197;52.524;13.444;2023-04-25T10:38:42;14.27;;;3.33;;
47289;SDS011;33197;52.524;13.444;2023-04-25T10:41:11;17.08;;;3.78;;
47289;SDS011;33197;52.524;13.444;2023-04-25T10:43:39;9.70;;;2.58;;
47289;SDS011;33197;52.524;13.444;2023-04-25T10:46:15;14.15;;;2.90;;
47289;SDS011;33197;52.524;13.444;2023-04-25T10:48:49;12.52;;;3.25;;
47289;SDS011;33197;52.524;13.444;2023-04-25T10:51:36;10.63;;;2.90;;
47289;SDS011;33197;52.524;13.444;2023-04-25T10:54:21;12.27;;;3.00;;
47289;SDS011;33197;52.524;13.444;2023-04-25T10:56:49;16.70;;;3.22;;
47289;SDS011;33197;52.524;13.444;2023-04-25T10:59:18;15.60;;;3.03;;
47289;SDS011;33197;52.524;13.444;2023-04-25T11:01:46;12.95;;;3.25;;
47289;SDS011;33197;52.524;13.444;2023-04-25T11:04:20;10.73;;;3.17;;
47289;SDS011;33197;52.524;13.444;2023-04-25T11:09:48;14.45;;;3.30;;
47289;SDS011;33197;52.524;13.444;2023-04-25T11:12:15;8.50;;;2.38;;
47289;SDS011;33197;52.524;13.444;2023-04-25T11:14:44;13.73;;;3.05;;
47289;SDS011;33197;52.524;13.444;2023-04-25T11:17:12;13.80;;;2.90;;
47289;SDS011;33197;52.524;13.444;2023-04-25T11:19:39;10.52;;;3.13;;
47289;SDS011;33197;52.524;13.444;2023-04-25T11:22:06;11.43;;;2.42;;
47289;SDS011;33197;52.524;13.444;2023-04-25T11:24:35;11.68;;;3.55;;
47289;SDS011;33197;52.524;13.444;2023-04-25T11:27:03;11.90;;;2.55;;
47289;SDS011;33197;52.524;13.444;2023-04-25T11:29:31;13.13;;;2.90;;
47289;SDS011;33197;52.524;13.444;2023-04-25T11:32:00;14.15;;;3.15;;
47289;SDS011;33197;52.524;13.444;2023-04-25T11:34:28;18.08;;;3.35;;
47289;SDS011;33197;52.524;13.444;2023-04-25T11:37:02;11.13;;;2.65;;
47289;SDS011;33197;52.524;13.444;2023-04-25T11:39:31;13.27;;;2.75;;
47289;SDS011;33197;52.524;13.444;2023-04-25T11:41:58;9.85;;;2.45;;
47289;SDS011;33197;52.524;13.444;2023-04-25T11:44:28;15.60;;;2.50;;
47289;SDS011;33197;52.524;13.444;2023-04-25T11:46:55;10.52;;;2.78;;
47289;SDS011;33197;52.524;13.444;2023-04-25T11:49:22;13.38;;;3.38;;
47289;SDS011;33197;52.524;13.444;2023-04-25T11:51:51;9.77;;;2.22;;
47289;SDS011;33197;52.524;13.444;2023-04-25T11:54:19;7.43;;;2.10;;
47289;SDS011;33197;52.524;13.444;2023-04-25T11:56:46;12.35;;;3.08;;
47289;SDS011;33197;52.524;13.444;2023-04-25T11:59:13;11.68;;;2.83;;
47289;SDS011;33197;52.524;13.444;2023-04-25T12:04:18;8.85;;;2.05;;
47289;SDS011;33197;52.524;13.444;2023-04-25T12:06:49;11.48;;;2.53;;
47289;SDS011;33197;52.524;13.444;2023-04-25T12:09:21;13.13;;;2.80;;
47289;SDS011;33197;52.524;13.444;2023-04-25T12:11:58;8.25;;;2.33;;
47289;SDS011;33197;52.524;13.444;2023-04-25T12:14:30;15.15;;;3.05;;
47289;SDS011;33197;52.524;13.444;2023-04-25T12:17:00;9.68;;;2.75;;
47289;SDS011;33197;52.524;13.444;2023-04-25T12:19:32;6.78;;;2.15;;
47289;SDS011;33197;52.524;13.444;2023-04-25T12:22:07;15.68;;;3.40;;
47289;SDS011;33197;52.524;13.444;2023-04-25T12:24:49;14.10;;;2.55;;
47289;SDS011;33197;52.524;13.444;2023-04-25T12:27:16;10.10;;;2.45;;
47289;SDS011;33197;52.524;13.444;2023-04-25T12:29:52;6.53;;;2.30;;
47289;SDS011;33197;52.524;13.444;2023-04-25T12:32:20;10.37;;;2.57;;
47289;SDS011;33197;52.524;13.444;2023-04-25T12:34:47;13.85;;;2.42;;
47289;SDS011;33197;52.524;13.444;2023-04-25T12:37:14;6.97;;;2.08;;
47289;SDS011;33197;52.524;13.444;2023-04-25T12:39:42;9.52;;;2.85;;
47289;SDS011;33197;52.524;13.444;2023-04-25T12:42:10;7.22;;;2.50;;
47289;SDS011;33197;52.524;13.444;2023-04-25T12:44:39;11.98;;;2.70;;
47289;SDS011;33197;52.524;13.444;2023-04-25T12:47:07;8.50;;;2.50;;
47289;SDS011;33197;52.524;13.444;2023-04-25T12:49:34;9.40;;;2.30;;
47289;SDS011;33197;52.524;13.444;2023-04-25T12:52:01;8.82;;;2.08;;
47289;SDS011;33197;52.524;13.444;2023-04-25T12:54:29;9.98;;;2.30;;
47289;SDS011;33197;52.524;13.444;2023-04-25T12:56:56;5.72;;;1.90;;
47289;SDS011;33197;52.524;13.444;2023-04-25T12:59:24;12.15;;;2.35;;
47289;SDS011;33197;52.524;13.444;2023-04-25T13:01:51;6.72;;;2.17;;
47289;SDS011;33197;52.524;13.444;2023-04-25T13:04:18;8.27;;;1.95;;
47289;SDS011;33197;52.524;13.444;2023-04-25T13:06:48;10.52;;;2.20;;
47289;SDS011;33197;52.524;13.444;2023-04-25T13:09:15;8.90;;;2.55;;
47289;SDS011;33197;52.524;13.444;2023-04-25T13:11:42;13.02;;;2.05;;
47289;SDS011;33197;52.524;13.444;2023-04-25T13:14:10;6.93;;;1.90;;
47289;SDS011;33197;52.524;13.444;2023-04-25T13:16:37;11.85;;;1.83;;
47289;SDS011;33197;52.524;13.444;2023-04-25T13:19:04;7.68;;;2.00;;
47289;SDS011;33197;52.524;13.444;2023-04-25T13:21:34;8.73;;;1.80;;
47289;SDS011;33197;52.524;13.444;2023-04-25T13:24:02;6.20;;;2.03;;
47289;SDS011;33197;52.524;13.444;2023-04-25T13:26:29;5.82;;;1.45;;
47289;SDS011;33197;52.524;13.444;2023-04-25T13:28:56;8.00;;;2.53;;
47289;SDS011;33197;52.524;13.444;2023-04-25T13:31:24;10.80;;;1.70;;
47289;SDS011;33197;52.524;13.444;2023-04-25T13:33:51;10.40;;;2.05;;
47289;SDS011;33197;52.524;13.444;2023-04-25T13:36:19;10.85;;;2.38;;
47289;SDS011;33197;52.524;13.444;2023-04-25T13:38:47;4.60;;;1.70;;
47289;SDS011;33197;52.524;13.444;2023-04-25T13:41:16;5.75;;;2.00;;
47289;SDS011;33197;52.524;13.444;2023-04-25T13:43:46;9.98;;;2.40;;
47289;SDS011;33197;52.524;13.444;2023-04-25T13:46:15;6.13;;;1.88;;
47289;SDS011;33197;52.524;13.444;2023-04-25T13:49:01;5.30;;;1.50;;
47289;SDS011;33197;52.524;13.444;2023-04-25T13:51:39;10.93;;;2.30;;
47289;SDS011;33197;52.524;13.444;2023-04-25T13:54:06;7.00;;;2.20;;
47289;SDS011;33197;52.524;13.444;2023-04-25T13:56:34;10.05;;;2.40;;
47289;SDS011;33197;52.524;13.444;2023-04-25T13:59:03;4.70;;;1.63;;
47289;SDS011;33197;52.524;13.444;2023-04-25T14:01:31;8.35;;;1.42;;
47289;SDS011;33197;52.524;13.444;2023-04-25T14:04:01;6.65;;;2.13;;
47289;SDS011;33197;52.524;13.444;2023-04-25T14:06:31;12.18;;;1.92;;
47289;SDS011;33197;52.524;13.444;2023-04-25T14:08:58;10.65;;;2.40;;
47289;SDS011;33197;52.524;13.444;2023-04-25T14:11:27;9.57;;;1.77;;
47289;SDS011;33197;52.524;13.444;2023-04-25T14:13:55;8.18;;;2.08;;
47289;SDS011;33197;52.524;13.444;2023-04-25T14:16:22;4.38;;;1.60;;
47289;SDS011;33197;52.524;13.444;2023-04-25T14:18:50;7.35;;;2.17;;
47289;SDS011;33197;52.524;13.444;2023-04-25T14:21:17;6.93;;;2.05;;
47289;SDS011;33197;52.524;13.444;2023-04-25T14:23:44;8.10;;;2.35;;
47289;SDS011;33197;52.524;13.444;2023-04-25T14:26:13;11.52;;;2.25;;
47289;SDS011;33197;52.524;13.444;2023-04-25T14:28:40;7.60;;;1.90;;
47289;SDS011;33197;52.524;13.444;2023-04-25T14:31:08;9.93;;;1.92;;
47289;SDS011;33197;52.524;13.444;2023-04-25T14:33:35;10.00;;;2.13;;
47289;SDS011;33197;52.524;13.444;2023-04-25T14:36:04;7.05;;;2.33;;
47289;SDS011;33197;52.524;13.444;2023-04-25T14:38:32;8.70;;;2.17;;
47289;SDS011;33197;52.524;13.444;2023-04-25T14:40:59;9.65;;;2.20;;